Saga Odyssey — VRDU9 — position and weather

sailwx.info

Track history (hours):
 
Tides and Currents Weather Stations Pressure Air Temp Water Temp Dewpoint Dewpoint Depression Visibility Wind Speed Wind Dir Waves Ship Positions

Saga Odyssey

Last reported at 2017-Nov-23 23:59 UTC. Time now 2017-Nov-24 00:12 UTC.
Position N 53°20' E 008°30'.

Length 199 m; draft 7.3 m.

Type: Cargo ship. MMSI: 477058200.

Date/timePositionNaut miles runAvg speedWind from/ knotsBaromVisibWave heightAir tempDewpointWater temp
2017-Nov-23 23:59N 53°20' E 008°30'0 0.1
2017-Nov-23 23:30N 53°20' E 008°30'2 3.5
2017-Nov-23 23:00N 53°22' E 008°30'4 8.7
2017-Nov-23 22:30N 53°26' E 008°29'510.2
2017-Nov-23 22:00N 53°31' E 008°33'4 7.8
2017-Nov-23 21:30N 53°35' E 008°32'510.3
2017-Nov-23 21:00N 53°39' E 008°25'510.1
2017-Nov-23 20:31N 53°42' E 008°19'510.8
2017-Nov-23 20:00N 53°45' E 008°12'510.1
2017-Nov-23 19:30N 53°49' E 008°06'511.1
2017-Nov-23 19:00N 53°51' E 007°58'510.4
2017-Nov-23 18:30N 53°52' E 007°49'510.7
2017-Nov-23 18:00N 53°54' E 007°40'4 8.1
2017-Nov-23 17:30N 53°55' E 007°33'4 7.4
2017-Nov-23 16:58N 53°54' E 007°27'5 8.7
2017-Nov-23 16:21N 53°53' E 007°18'4 8.9
2017-Nov-23 15:55N 53°52' E 007°12'6411.9
2017-Nov-23 10:33N 53°35' E 005°27'113.9
2017-Nov-23 10:28N 53°34' E 005°26'714.1
2017-Nov-23 10:00N 53°32' E 005°15'714.0
2017-Nov-23 09:31N 53°30' E 005°04'713.8
2017-Nov-23 09:00N 53°28' E 004°53'713.4
2017-Nov-23 08:30N 53°25' E 004°43'713.5
2017-Nov-23 08:01N 53°18' E 004°39'714.0
2017-Nov-23 07:29N 53°12' E 004°34'714.3
2017-Nov-23 07:00N 53°06' E 004°28'714.1
2017-Nov-23 06:30N 53°00' E 004°22'714.3
2017-Nov-23 06:00N 52°53' E 004°17'713.8
2017-Nov-23 05:31N 52°48' E 004°10'714.1
2017-Nov-23 05:00N 52°43' E 004°02'713.8
2017-Nov-23 04:30N 52°38' E 003°54'714.0
2017-Nov-23 04:00N 52°33' E 003°46'713.9
2017-Nov-23 03:30N 52°28' E 003°38'713.8
2017-Nov-23 03:00N 52°23' E 003°30'812.7
2017-Nov-23 02:20N 52°15' E 003°28'412.4
2017-Nov-23 02:00N 52°10' E 003°28'510.5
2017-Nov-23 01:30N 52°08' E 003°35'611.3
2017-Nov-23 01:00N 52°05' E 003°43'611.8
2017-Nov-23 00:30N 52°03' E 003°52'4 7.9
2017-Nov-23 00:00N 52°01' E 003°58'612.3
2017-Nov-22 23:30N 51°59' E 004°07'611.8
2017-Nov-22 23:00N 51°55' E 004°14'3 5.5
2017-Nov-22 22:30N 51°53' E 004°18'0 0.0
2017-Nov-22 22:00N 51°53' E 004°18'0 0.0
2017-Nov-22 21:30N 51°53' E 004°18'0 0.0
2017-Nov-22 21:00N 51°53' E 004°18'0 0.0
2017-Nov-22 20:30N 51°53' E 004°18'0 0.0
2017-Nov-22 20:00N 51°53' E 004°18'0 0.0
2017-Nov-22 19:30N 51°53' E 004°18'  
2017-Nov-20 00:30N 51°53' E 004°18'0 0.0
2017-Nov-20 00:00N 51°53' E 004°18'0 0.0
2017-Nov-19 23:30N 51°53' E 004°18'0 0.0
2017-Nov-19 23:00N 51°53' E 004°18'0 0.0
2017-Nov-19 22:30N 51°53' E 004°18'0 0.0
2017-Nov-19 22:00N 51°53' E 004°18'0 0.0
2017-Nov-19 21:30N 51°53' E 004°18'0 0.0
2017-Nov-19 21:00N 51°53' E 004°18'0 0.0
2017-Nov-19 20:30N 51°53' E 004°18'0 0.0
2017-Nov-19 20:00N 51°53' E 004°18'0 0.0
2017-Nov-19 19:30N 51°53' E 004°18'0 0.0
2017-Nov-19 19:00N 51°53' E 004°18'0 0.0
2017-Nov-19 18:30N 51°53' E 004°18'0 0.0
2017-Nov-19 18:00N 51°53' E 004°18'0 0.0
2017-Nov-19 17:30N 51°53' E 004°18'0 0.0
2017-Nov-19 17:00N 51°53' E 004°18'0 0.0
2017-Nov-19 16:30N 51°53' E 004°18'0 0.0
2017-Nov-19 16:00N 51°53' E 004°18'0 0.0
2017-Nov-19 15:30N 51°53' E 004°18'0 0.0
2017-Nov-19 15:00N 51°53' E 004°18'0 0.0
2017-Nov-19 14:30N 51°53' E 004°18'0 0.0
2017-Nov-19 14:00N 51°53' E 004°18'0 0.0
2017-Nov-19 13:30N 51°53' E 004°18'0 0.0
2017-Nov-19 13:00N 51°53' E 004°18'0 0.0
2017-Nov-19 12:30N 51°53' E 004°18'0 0.0
2017-Nov-19 12:00N 51°53' E 004°18'0 0.0
2017-Nov-19 11:30N 51°53' E 004°18'0 0.0
2017-Nov-19 11:00N 51°53' E 004°18'0 0.0
2017-Nov-19 10:30N 51°53' E 004°18'0 0.0
2017-Nov-19 10:00N 51°53' E 004°18'0 0.0
2017-Nov-19 09:30N 51°53' E 004°18'0 0.0
2017-Nov-19 09:00N 51°53' E 004°18'0 0.0
2017-Nov-19 08:30N 51°53' E 004°18'0 0.0
2017-Nov-19 08:00N 51°53' E 004°18'0 0.0
2017-Nov-19 07:30N 51°53' E 004°18'0 0.0
2017-Nov-19 07:00N 51°53' E 004°18'0 0.0
2017-Nov-19 06:30N 51°53' E 004°18'0 0.0
2017-Nov-19 06:00N 51°53' E 004°18'0 0.0
2017-Nov-19 05:30N 51°53' E 004°18'0 0.0
2017-Nov-19 05:00N 51°53' E 004°18'0 0.0
2017-Nov-19 04:30N 51°53' E 004°18'0 0.0
2017-Nov-19 04:00N 51°53' E 004°18'0 0.0
2017-Nov-19 03:30N 51°53' E 004°18'0 0.0
2017-Nov-19 03:00N 51°53' E 004°18'0 0.0
2017-Nov-19 02:30N 51°53' E 004°18'0 0.0
2017-Nov-19 02:00N 51°53' E 004°18'0 0.0
2017-Nov-19 01:30N 51°53' E 004°18'0 0.0
2017-Nov-19 01:00N 51°53' E 004°18'0 0.0
2017-Nov-19 00:30N 51°53' E 004°18'0 0.0
2017-Nov-19 00:00N 51°53' E 004°18'0 0.0
2017-Nov-18 23:30N 51°53' E 004°18'0 0.0
2017-Nov-18 23:00N 51°53' E 004°18'0 0.0
2017-Nov-18 22:30N 51°53' E 004°18'0 0.0
2017-Nov-18 22:00N 51°53' E 004°18'0 0.0
2017-Nov-18 21:30N 51°53' E 004°18'0 0.0
2017-Nov-18 21:00N 51°53' E 004°18'0 0.0
2017-Nov-18 20:30N 51°53' E 004°18'0 0.0
2017-Nov-18 20:00N 51°53' E 004°18'0 0.0
2017-Nov-18 19:30N 51°53' E 004°18'0 0.0
2017-Nov-18 19:00N 51°53' E 004°18'0 0.0
2017-Nov-18 18:30N 51°53' E 004°18'0 0.0
2017-Nov-18 18:00N 51°53' E 004°18'0 0.0
2017-Nov-18 17:30N 51°53' E 004°18'0 0.0
2017-Nov-18 17:00N 51°53' E 004°18'0 0.0
2017-Nov-18 16:30N 51°53' E 004°18'0 0.0
2017-Nov-18 16:00N 51°53' E 004°18'0 0.0
2017-Nov-18 15:30N 51°53' E 004°18'0 0.0
2017-Nov-18 15:00N 51°53' E 004°18'0 0.0
2017-Nov-18 14:30N 51°53' E 004°18'0 0.0
2017-Nov-18 14:00N 51°53' E 004°18'0 0.0
2017-Nov-18 13:30N 51°53' E 004°18'0 0.0
2017-Nov-18 13:00N 51°53' E 004°18'0 0.0
2017-Nov-18 12:30N 51°53' E 004°18'0 0.0
2017-Nov-18 12:00N 51°53' E 004°18'0 0.0
2017-Nov-18 11:30N 51°53' E 004°18'0 0.0
2017-Nov-18 11:00N 51°53' E 004°18'0 0.0
2017-Nov-18 10:30N 51°53' E 004°18'0 0.0
2017-Nov-18 10:00N 51°53' E 004°18'0 0.0
2017-Nov-18 09:30N 51°53' E 004°18'0 0.0
2017-Nov-18 09:00N 51°53' E 004°18'0 0.0
2017-Nov-18 08:30N 51°53' E 004°18'0 0.3
2017-Nov-18 08:00N 51°53' E 004°18'1 1.3
2017-Nov-18 07:30N 51°54' E 004°18'3 5.4
2017-Nov-18 07:00N 51°55' E 004°14'4 7.3
2017-Nov-18 06:30N 51°58' E 004°09'4 8.2
2017-Nov-18 06:00N 51°59' E 004°03'5 9.9
2017-Nov-18 05:30N 52°00' E 003°55'4 7.4
2017-Nov-18 05:00N 52°00' E 003°49'4 8.2
2017-Nov-18 04:30N 51°59' E 003°43'611.7
2017-Nov-18 04:00N 51°57' E 003°34'810.5
2017-Nov-18 03:17N 51°54' E 003°23'411.1
2017-Nov-18 02:58N 51°51' E 003°20'710.6
2017-Nov-18 02:19N 51°44' E 003°17'3 8.5
2017-Nov-18 02:00N 51°42' E 003°19'510.7
2017-Nov-18 01:30N 51°37' E 003°22'612.3
2017-Nov-18 01:00N 51°32' E 003°26'611.2
2017-Nov-18 00:30N 51°27' E 003°31'4 7.1
2017-Nov-18 00:00N 51°26' E 003°37'4 7.7
2017-Nov-17 23:30N 51°25' E 003°43'5 9.5
2017-Nov-17 23:00N 51°21' E 003°48'2 3.5
2017-Nov-17 22:30N 51°20' E 003°49'0 0.0
2017-Nov-17 22:00N 51°20' E 003°49'2 3.6
2017-Nov-17 21:30N 51°18' E 003°50'3 5.7
2017-Nov-17 21:00N 51°15' E 003°49'3 5.7
2017-Nov-17 20:30N 51°12' E 003°48'3 5.8
2017-Nov-17 20:01N 51°10' E 003°47'3 5.6
2017-Nov-17 19:31N 51°07' E 003°45'1 2.0
2017-Nov-17 19:01N 51°06' E 003°45'0 0.8
2017-Nov-17 18:30N 51°06' E 003°45'0 0.0
2017-Nov-17 18:00N 51°06' E 003°45'0 0.0
2017-Nov-17 17:30N 51°06' E 003°45'0 0.0
2017-Nov-17 17:00N 51°06' E 003°45'0 0.0
2017-Nov-17 16:27N 51°06' E 003°45'0 0.0
2017-Nov-17 16:00N 51°06' E 003°45'0 0.0
2017-Nov-17 15:30N 51°06' E 003°45'0 0.0
2017-Nov-17 15:00N 51°06' E 003°45'0 0.0
2017-Nov-17 14:30N 51°06' E 003°45'0 0.0
2017-Nov-17 14:00N 51°06' E 003°45'0 0.0
2017-Nov-17 13:30N 51°06' E 003°45'0 0.0
2017-Nov-17 13:00N 51°06' E 003°45'0 0.0
2017-Nov-17 12:30N 51°06' E 003°45'0 0.0
2017-Nov-17 12:00N 51°06' E 003°45'0 0.0
2017-Nov-17 11:30N 51°06' E 003°45'0 0.0
2017-Nov-17 10:57N 51°06' E 003°45'0 0.0
2017-Nov-17 10:30N 51°06' E 003°45'0 0.0
2017-Nov-17 10:00N 51°06' E 003°45'0 0.0
2017-Nov-17 09:30N 51°06' E 003°45'0 0.0
2017-Nov-17 09:00N 51°06' E 003°45'0 0.0
2017-Nov-17 08:30N 51°06' E 003°45'0 0.0
2017-Nov-17 08:00N 51°06' E 003°45'0 0.0
2017-Nov-17 07:30N 51°06' E 003°45'0 0.0
2017-Nov-17 07:00N 51°06' E 003°45'0 0.0
2017-Nov-17 06:30N 51°06' E 003°45'0 0.0
2017-Nov-17 06:00N 51°06' E 003°45'0 0.0
2017-Nov-17 05:30N 51°06' E 003°45'0 0.0
2017-Nov-17 05:00N 51°06' E 003°45'0 0.0
2017-Nov-17 04:30N 51°06' E 003°45'0 0.0
2017-Nov-17 04:00N 51°06' E 003°45'0 0.0
2017-Nov-17 03:30N 51°06' E 003°45'0 0.0
2017-Nov-17 03:00N 51°06' E 003°45'0 0.0
2017-Nov-17 02:30N 51°06' E 003°45'0 0.0
2017-Nov-17 02:00N 51°06' E 003°45'0 0.0
2017-Nov-17 01:30N 51°06' E 003°45'0 0.0
2017-Nov-17 01:00N 51°06' E 003°45'0 0.0
2017-Nov-17 00:30N 51°06' E 003°45'0 0.0
2017-Nov-17 00:00N 51°06' E 003°45'0 0.0
2017-Nov-16 23:30N 51°06' E 003°45'0 0.0
2017-Nov-16 23:00N 51°06' E 003°45'0 0.0
2017-Nov-16 22:30N 51°06' E 003°45'0 0.0
2017-Nov-16 22:00N 51°06' E 003°45'0 0.0
2017-Nov-16 21:30N 51°06' E 003°45'0 0.0
2017-Nov-16 21:00N 51°06' E 003°45'0 0.0
2017-Nov-16 20:30N 51°06' E 003°45'0 0.0
2017-Nov-16 20:00N 51°06' E 003°45'0 0.0
2017-Nov-16 19:30N 51°06' E 003°45'0 0.0
2017-Nov-16 19:00N 51°06' E 003°45'0 0.0
2017-Nov-16 18:30N 51°06' E 003°45'0 0.0
2017-Nov-16 18:00N 51°06' E 003°45'0 0.0
2017-Nov-16 17:30N 51°06' E 003°45'0 0.0
2017-Nov-16 17:00N 51°06' E 003°45'0 0.0
2017-Nov-16 16:30N 51°06' E 003°45'0 0.0
2017-Nov-16 16:00N 51°06' E 003°45'0 0.0
2017-Nov-16 15:30N 51°06' E 003°45'0 0.0
2017-Nov-16 15:00N 51°06' E 003°45'0 0.0
2017-Nov-16 14:30N 51°06' E 003°45'0 0.0
2017-Nov-16 14:00N 51°06' E 003°45'0 0.0
2017-Nov-16 13:30N 51°06' E 003°45'0 0.0
2017-Nov-16 13:00N 51°06' E 003°45'0 0.0
2017-Nov-16 12:30N 51°06' E 003°45'0 0.0
2017-Nov-16 12:00N 51°06' E 003°45'0 0.0
2017-Nov-16 11:30N 51°06' E 003°45'0 0.0
2017-Nov-16 11:00N 51°06' E 003°45'0 0.0
2017-Nov-16 10:30N 51°06' E 003°45'0 0.0
2017-Nov-16 10:00N 51°06' E 003°45'0 0.0
2017-Nov-16 09:30N 51°06' E 003°45'0 0.0
2017-Nov-16 09:00N 51°06' E 003°45'0 0.0
2017-Nov-16 08:30N 51°06' E 003°45'0 0.0
2017-Nov-16 08:00N 51°06' E 003°45'0 0.0
2017-Nov-16 07:27N 51°06' E 003°45'0 0.0
2017-Nov-16 07:00N 51°06' E 003°45'1 2.9
2017-Nov-16 06:30N 51°07' E 003°45'2 4.8
2017-Nov-16 06:00N 51°09' E 003°47'3 5.4
2017-Nov-16 05:30N 51°12' E 003°48'2 4.7
2017-Nov-16 05:00N 51°14' E 003°49'2 4.8
2017-Nov-16 04:30N 51°16' E 003°50'2 4.6
2017-Nov-16 04:00N 51°19' E 003°50'1 2.2
2017-Nov-16 03:30N 51°20' E 003°49'0 0.0
2017-Nov-16 03:00N 51°20' E 003°49'0 0.7
2017-Nov-16 02:30N 51°20' E 003°49'0 0.4
2017-Nov-16 02:00N 51°20' E 003°49'3 5.9
2017-Nov-16 01:30N 51°22' E 003°45'4 8.7
2017-Nov-16 01:00N 51°26' E 003°41'2 4.1
2017-Nov-16 00:30N 51°28' E 003°42'0 0.0
2017-Nov-16 00:00N 51°28' E 003°42'0 0.0
2017-Nov-15 23:30N 51°28' E 003°42'0 0.0
2017-Nov-15 23:00N 51°28' E 003°42'0 0.0
2017-Nov-15 22:30N 51°28' E 003°42'0 0.0
2017-Nov-15 22:00N 51°28' E 003°42'0 0.0
2017-Nov-15 21:30N 51°28' E 003°42'0 0.0
2017-Nov-15 21:00N 51°28' E 003°42'0 0.0
2017-Nov-15 20:30N 51°28' E 003°42'0 0.0
2017-Nov-15 20:00N 51°28' E 003°42'0 0.0
2017-Nov-15 19:30N 51°28' E 003°42'0 0.0
2017-Nov-15 18:57N 51°28' E 003°42'0 0.0
2017-Nov-15 18:30N 51°28' E 003°42'0 0.0
2017-Nov-15 17:48N 51°28' E 003°42'0 0.0
2017-Nov-15 17:30N 51°28' E 003°42'0 0.0
2017-Nov-15 17:00N 51°28' E 003°42'0 0.0
2017-Nov-15 16:30N 51°28' E 003°42'0 0.0
2017-Nov-15 15:57N 51°28' E 003°42'0 0.0
2017-Nov-15 15:30N 51°28' E 003°42'0 0.0
2017-Nov-15 15:00N 51°28' E 003°42'0 0.0
2017-Nov-15 14:30N 51°28' E 003°42'0 0.0
2017-Nov-15 14:00N 51°28' E 003°42'0 0.0
2017-Nov-15 13:30N 51°28' E 003°42'0 0.0
2017-Nov-15 13:00N 51°28' E 003°42'0 0.0
2017-Nov-15 12:30N 51°28' E 003°42'0 0.0
2017-Nov-15 12:00N 51°28' E 003°42'0 0.0
2017-Nov-15 11:30N 51°28' E 003°42'0 0.0
2017-Nov-15 11:00N 51°28' E 003°42'0 0.0
2017-Nov-15 10:30N 51°28' E 003°42'0 0.0
2017-Nov-15 10:00N 51°28' E 003°42'0 0.0
2017-Nov-15 09:30N 51°28' E 003°42'0 0.0
2017-Nov-15 09:00N 51°28' E 003°42'0 0.0
2017-Nov-15 08:30N 51°28' E 003°42'0 0.0
2017-Nov-15 08:00N 51°28' E 003°42'0 0.0
2017-Nov-15 07:30N 51°28' E 003°42'0 0.0
2017-Nov-15 07:00N 51°28' E 003°42'0 0.0
2017-Nov-15 06:30N 51°28' E 003°42'0 0.0
2017-Nov-15 06:00N 51°28' E 003°42'0 0.0
2017-Nov-15 05:24N 51°28' E 003°42'0 0.0
2017-Nov-15 05:00N 51°28' E 003°42'0 0.0
2017-Nov-15 04:30N 51°28' E 003°42'0 0.0
2017-Nov-15 04:00N 51°28' E 003°42'0 0.0
2017-Nov-15 03:30N 51°28' E 003°42'0 0.0
2017-Nov-15 03:00N 51°28' E 003°42'0 0.0
2017-Nov-15 02:30N 51°28' E 003°42'0 0.0
2017-Nov-15 02:00N 51°28' E 003°42'0 0.0
2017-Nov-15 01:30N 51°28' E 003°42'0 0.0
2017-Nov-15 01:00N 51°28' E 003°42'0 0.0
2017-Nov-15 00:30N 51°28' E 003°42'0 0.0
2017-Nov-15 00:00N 51°28' E 003°42'0 0.0
2017-Nov-14 23:30N 51°28' E 003°42'0 0.0
2017-Nov-14 23:00N 51°28' E 003°42'0 0.0
2017-Nov-14 22:30N 51°28' E 003°42'0 0.5
2017-Nov-14 22:01N 51°28' E 003°41'3 5.6
2017-Nov-14 21:31N 51°26' E 003°37'815.4
2017-Nov-14 21:00N 51°25' E 003°25'815.5
2017-Nov-14 20:30N 51°24' E 003°13'714.0
2017-Nov-14 20:00N 51°24' E 003°02'713.2
2017-Nov-14 19:30N 51°22' E 002°52'611.3
2017-Nov-14 19:00N 51°22' E 002°42'4 8.7
2017-Nov-14 18:30N 51°22' E 002°36'611.9
2017-Nov-14 18:00N 51°21' E 002°26'611.3
2017-Nov-14 17:30N 51°19' E 002°18'510.8
2017-Nov-14 17:00N 51°16' E 002°10'510.4
2017-Nov-14 16:30N 51°13' E 002°03'510.4
2017-Nov-14 16:00N 51°11' E 001°56'510.4
2017-Nov-14 15:30N 51°08' E 001°49'510.4
2017-Nov-14 15:00N 51°05' E 001°43'510.5
2017-Nov-14 14:30N 51°01' E 001°36'611.1
2017-Nov-14 14:00N 50°57' E 001°30'611.1
2017-Nov-14 13:30N 50°52' E 001°27'611.3
2017-Nov-14 13:00N 50°47' E 001°23'1011.1
2017-Nov-14 12:09N 50°39' E 001°15'211.6
2017-Nov-14 12:00N 50°38' E 001°13'711.5
2017-Nov-14 11:23N 50°33' E 001°05'711.2
2017-Nov-14 10:47N 50°28' E 000°57'411.4
2017-Nov-14 10:26N 50°27' E 000°51'511.3
2017-Nov-14 10:00N 50°26' E 000°44'1211.4
2017-Nov-14 08:57N 50°23' E 000°26'511.3
2017-Nov-14 08:30N 50°22' E 000°18'611.7
2017-Nov-14 08:00N 50°20' E 000°09'612.1
2017-Nov-14 07:30N 50°18' W 000°00'612.4
2017-Nov-14 07:00N 50°17' W 000°10'612.9
2017-Nov-14 06:30N 50°15' W 000°19'713.3
2017-Nov-14 05:58N 50°13' W 000°30'613.6
2017-Nov-14 05:30N 50°12' W 000°40'713.8
2017-Nov-14 04:59N 50°10' W 000°50'1013.9
2017-Nov-14 04:16N 50°07' W 001°05'413.8
2017-Nov-14 03:58N 50°06' W 001°12'613.7
2017-Nov-14 03:30N 50°04' W 001°21'713.4
2017-Nov-14 03:00N 50°03' W 001°31'612.9
2017-Nov-14 02:30N 50°01' W 001°41'2111.5
2017-Nov-14 00:39N 49°56' W 002°13'210.3
2017-Nov-14 00:29N 49°55' W 002°16'  
Track history (hours):
 
Tides and Currents Weather Stations Pressure Air Temp Water Temp Dewpoint Dewpoint Depression Visibility Wind Speed Wind Dir Waves Ship Positions

Saga Odyssey

Last reported at 2017-Nov-23 23:59 UTC. Time now 2017-Nov-24 00:12 UTC.
Position N 53°20' E 008°30'.

Length 199 m; draft 7.3 m.

Type: Cargo ship. MMSI: 477058200.

Date/timePositionNaut miles runAvg speedWind from/ knotsBaromVisibWave heightAir tempDewpointWater temp
2017-Nov-23 23:59N 53°20' E 008°30'0 0.1
2017-Nov-23 23:30N 53°20' E 008°30'2 3.5
2017-Nov-23 23:00N 53°22' E 008°30'4 8.7
2017-Nov-23 22:30N 53°26' E 008°29'510.2
2017-Nov-23 22:00N 53°31' E 008°33'4 7.8
2017-Nov-23 21:30N 53°35' E 008°32'510.3
2017-Nov-23 21:00N 53°39' E 008°25'510.1
2017-Nov-23 20:31N 53°42' E 008°19'510.8
2017-Nov-23 20:00N 53°45' E 008°12'510.1
2017-Nov-23 19:30N 53°49' E 008°06'511.1
2017-Nov-23 19:00N 53°51' E 007°58'510.4
2017-Nov-23 18:30N 53°52' E 007°49'510.7
2017-Nov-23 18:00N 53°54' E 007°40'4 8.1
2017-Nov-23 17:30N 53°55' E 007°33'4 7.4
2017-Nov-23 16:58N 53°54' E 007°27'5 8.7
2017-Nov-23 16:21N 53°53' E 007°18'4 8.9
2017-Nov-23 15:55N 53°52' E 007°12'6411.9
2017-Nov-23 10:33N 53°35' E 005°27'113.9
2017-Nov-23 10:28N 53°34' E 005°26'714.1
2017-Nov-23 10:00N 53°32' E 005°15'714.0
2017-Nov-23 09:31N 53°30' E 005°04'713.8
2017-Nov-23 09:00N 53°28' E 004°53'713.4
2017-Nov-23 08:30N 53°25' E 004°43'713.5
2017-Nov-23 08:01N 53°18' E 004°39'714.0
2017-Nov-23 07:29N 53°12' E 004°34'714.3
2017-Nov-23 07:00N 53°06' E 004°28'714.1
2017-Nov-23 06:30N 53°00' E 004°22'714.3
2017-Nov-23 06:00N 52°53' E 004°17'713.8
2017-Nov-23 05:31N 52°48' E 004°10'714.1
2017-Nov-23 05:00N 52°43' E 004°02'713.8
2017-Nov-23 04:30N 52°38' E 003°54'714.0
2017-Nov-23 04:00N 52°33' E 003°46'713.9
2017-Nov-23 03:30N 52°28' E 003°38'713.8
2017-Nov-23 03:00N 52°23' E 003°30'812.7
2017-Nov-23 02:20N 52°15' E 003°28'412.4
2017-Nov-23 02:00N 52°10' E 003°28'510.5
2017-Nov-23 01:30N 52°08' E 003°35'611.3
2017-Nov-23 01:00N 52°05' E 003°43'611.8
2017-Nov-23 00:30N 52°03' E 003°52'4 7.9
2017-Nov-23 00:00N 52°01' E 003°58'612.3
2017-Nov-22 23:30N 51°59' E 004°07'611.8
2017-Nov-22 23:00N 51°55' E 004°14'3 5.5
2017-Nov-22 22:30N 51°53' E 004°18'0 0.0
2017-Nov-22 22:00N 51°53' E 004°18'0 0.0
2017-Nov-22 21:30N 51°53' E 004°18'0 0.0
2017-Nov-22 21:00N 51°53' E 004°18'0 0.0
2017-Nov-22 20:30N 51°53' E 004°18'0 0.0
2017-Nov-22 20:00N 51°53' E 004°18'0 0.0
2017-Nov-22 19:30N 51°53' E 004°18'  
2017-Nov-20 00:30N 51°53' E 004°18'0 0.0
2017-Nov-20 00:00N 51°53' E 004°18'0 0.0
2017-Nov-19 23:30N 51°53' E 004°18'0 0.0
2017-Nov-19 23:00N 51°53' E 004°18'0 0.0
2017-Nov-19 22:30N 51°53' E 004°18'0 0.0
2017-Nov-19 22:00N 51°53' E 004°18'0 0.0
2017-Nov-19 21:30N 51°53' E 004°18'0 0.0
2017-Nov-19 21:00N 51°53' E 004°18'0 0.0
2017-Nov-19 20:30N 51°53' E 004°18'0 0.0
2017-Nov-19 20:00N 51°53' E 004°18'0 0.0
2017-Nov-19 19:30N 51°53' E 004°18'0 0.0
2017-Nov-19 19:00N 51°53' E 004°18'0 0.0
2017-Nov-19 18:30N 51°53' E 004°18'0 0.0
2017-Nov-19 18:00N 51°53' E 004°18'0 0.0
2017-Nov-19 17:30N 51°53' E 004°18'0 0.0
2017-Nov-19 17:00N 51°53' E 004°18'0 0.0
2017-Nov-19 16:30N 51°53' E 004°18'0 0.0
2017-Nov-19 16:00N 51°53' E 004°18'0 0.0
2017-Nov-19 15:30N 51°53' E 004°18'0 0.0
2017-Nov-19 15:00N 51°53' E 004°18'0 0.0
2017-Nov-19 14:30N 51°53' E 004°18'0 0.0
2017-Nov-19 14:00N 51°53' E 004°18'0 0.0
2017-Nov-19 13:30N 51°53' E 004°18'0 0.0
2017-Nov-19 13:00N 51°53' E 004°18'0 0.0
2017-Nov-19 12:30N 51°53' E 004°18'0 0.0
2017-Nov-19 12:00N 51°53' E 004°18'0 0.0
2017-Nov-19 11:30N 51°53' E 004°18'0 0.0
2017-Nov-19 11:00N 51°53' E 004°18'0 0.0
2017-Nov-19 10:30N 51°53' E 004°18'0 0.0
2017-Nov-19 10:00N 51°53' E 004°18'0 0.0
2017-Nov-19 09:30N 51°53' E 004°18'0 0.0
2017-Nov-19 09:00N 51°53' E 004°18'0 0.0
2017-Nov-19 08:30N 51°53' E 004°18'0 0.0
2017-Nov-19 08:00N 51°53' E 004°18'0 0.0
2017-Nov-19 07:30N 51°53' E 004°18'0 0.0
2017-Nov-19 07:00N 51°53' E 004°18'0 0.0
2017-Nov-19 06:30N 51°53' E 004°18'0 0.0
2017-Nov-19 06:00N 51°53' E 004°18'0 0.0
2017-Nov-19 05:30N 51°53' E 004°18'0 0.0
2017-Nov-19 05:00N 51°53' E 004°18'0 0.0
2017-Nov-19 04:30N 51°53' E 004°18'0 0.0
2017-Nov-19 04:00N 51°53' E 004°18'0 0.0
2017-Nov-19 03:30N 51°53' E 004°18'0 0.0
2017-Nov-19 03:00N 51°53' E 004°18'0 0.0
2017-Nov-19 02:30N 51°53' E 004°18'0 0.0
2017-Nov-19 02:00N 51°53' E 004°18'0 0.0
2017-Nov-19 01:30N 51°53' E 004°18'0 0.0
2017-Nov-19 01:00N 51°53' E 004°18'0 0.0
2017-Nov-19 00:30N 51°53' E 004°18'0 0.0
2017-Nov-19 00:00N 51°53' E 004°18'0 0.0
2017-Nov-18 23:30N 51°53' E 004°18'0 0.0
2017-Nov-18 23:00N 51°53' E 004°18'0 0.0
2017-Nov-18 22:30N 51°53' E 004°18'0 0.0
2017-Nov-18 22:00N 51°53' E 004°18'0 0.0
2017-Nov-18 21:30N 51°53' E 004°18'0 0.0
2017-Nov-18 21:00N 51°53' E 004°18'0 0.0
2017-Nov-18 20:30N 51°53' E 004°18'0 0.0
2017-Nov-18 20:00N 51°53' E 004°18'0 0.0
2017-Nov-18 19:30N 51°53' E 004°18'0 0.0
2017-Nov-18 19:00N 51°53' E 004°18'0 0.0
2017-Nov-18 18:30N 51°53' E 004°18'0 0.0
2017-Nov-18 18:00N 51°53' E 004°18'0 0.0
2017-Nov-18 17:30N 51°53' E 004°18'0 0.0
2017-Nov-18 17:00N 51°53' E 004°18'0 0.0
2017-Nov-18 16:30N 51°53' E 004°18'0 0.0
2017-Nov-18 16:00N 51°53' E 004°18'0 0.0
2017-Nov-18 15:30N 51°53' E 004°18'0 0.0
2017-Nov-18 15:00N 51°53' E 004°18'0 0.0
2017-Nov-18 14:30N 51°53' E 004°18'0 0.0
2017-Nov-18 14:00N 51°53' E 004°18'0 0.0
2017-Nov-18 13:30N 51°53' E 004°18'0 0.0
2017-Nov-18 13:00N 51°53' E 004°18'0 0.0
2017-Nov-18 12:30N 51°53' E 004°18'0 0.0
2017-Nov-18 12:00N 51°53' E 004°18'0 0.0
2017-Nov-18 11:30N 51°53' E 004°18'0 0.0
2017-Nov-18 11:00N 51°53' E 004°18'0 0.0
2017-Nov-18 10:30N 51°53' E 004°18'0 0.0
2017-Nov-18 10:00N 51°53' E 004°18'0 0.0
2017-Nov-18 09:30N 51°53' E 004°18'0 0.0
2017-Nov-18 09:00N 51°53' E 004°18'0 0.0
2017-Nov-18 08:30N 51°53' E 004°18'0 0.3
2017-Nov-18 08:00N 51°53' E 004°18'1 1.3
2017-Nov-18 07:30N 51°54' E 004°18'3 5.4
2017-Nov-18 07:00N 51°55' E 004°14'4 7.3
2017-Nov-18 06:30N 51°58' E 004°09'4 8.2
2017-Nov-18 06:00N 51°59' E 004°03'5 9.9
2017-Nov-18 05:30N 52°00' E 003°55'4 7.4
2017-Nov-18 05:00N 52°00' E 003°49'4 8.2
2017-Nov-18 04:30N 51°59' E 003°43'611.7
2017-Nov-18 04:00N 51°57' E 003°34'810.5
2017-Nov-18 03:17N 51°54' E 003°23'411.1
2017-Nov-18 02:58N 51°51' E 003°20'710.6
2017-Nov-18 02:19N 51°44' E 003°17'3 8.5
2017-Nov-18 02:00N 51°42' E 003°19'510.7
2017-Nov-18 01:30N 51°37' E 003°22'612.3
2017-Nov-18 01:00N 51°32' E 003°26'611.2
2017-Nov-18 00:30N 51°27' E 003°31'4 7.1
2017-Nov-18 00:00N 51°26' E 003°37'4 7.7
2017-Nov-17 23:30N 51°25' E 003°43'5 9.5
2017-Nov-17 23:00N 51°21' E 003°48'2 3.5
2017-Nov-17 22:30N 51°20' E 003°49'0 0.0
2017-Nov-17 22:00N 51°20' E 003°49'2 3.6
2017-Nov-17 21:30N 51°18' E 003°50'3 5.7
2017-Nov-17 21:00N 51°15' E 003°49'3 5.7
2017-Nov-17 20:30N 51°12' E 003°48'3 5.8
2017-Nov-17 20:01N 51°10' E 003°47'3 5.6
2017-Nov-17 19:31N 51°07' E 003°45'1 2.0
2017-Nov-17 19:01N 51°06' E 003°45'0 0.8
2017-Nov-17 18:30N 51°06' E 003°45'0 0.0
2017-Nov-17 18:00N 51°06' E 003°45'0 0.0
2017-Nov-17 17:30N 51°06' E 003°45'0 0.0
2017-Nov-17 17:00N 51°06' E 003°45'0 0.0
2017-Nov-17 16:27N 51°06' E 003°45'0 0.0
2017-Nov-17 16:00N 51°06' E 003°45'0 0.0
2017-Nov-17 15:30N 51°06' E 003°45'0 0.0
2017-Nov-17 15:00N 51°06' E 003°45'0 0.0
2017-Nov-17 14:30N 51°06' E 003°45'0 0.0
2017-Nov-17 14:00N 51°06' E 003°45'0 0.0
2017-Nov-17 13:30N 51°06' E 003°45'0 0.0
2017-Nov-17 13:00N 51°06' E 003°45'0 0.0
2017-Nov-17 12:30N 51°06' E 003°45'0 0.0
2017-Nov-17 12:00N 51°06' E 003°45'0 0.0
2017-Nov-17 11:30N 51°06' E 003°45'0 0.0
2017-Nov-17 10:57N 51°06' E 003°45'0 0.0
2017-Nov-17 10:30N 51°06' E 003°45'0 0.0
2017-Nov-17 10:00N 51°06' E 003°45'0 0.0
2017-Nov-17 09:30N 51°06' E 003°45'0 0.0
2017-Nov-17 09:00N 51°06' E 003°45'0 0.0
2017-Nov-17 08:30N 51°06' E 003°45'0 0.0
2017-Nov-17 08:00N 51°06' E 003°45'0 0.0
2017-Nov-17 07:30N 51°06' E 003°45'0 0.0
2017-Nov-17 07:00N 51°06' E 003°45'0 0.0
2017-Nov-17 06:30N 51°06' E 003°45'0 0.0
2017-Nov-17 06:00N 51°06' E 003°45'0 0.0
2017-Nov-17 05:30N 51°06' E 003°45'0 0.0
2017-Nov-17 05:00N 51°06' E 003°45'0 0.0
2017-Nov-17 04:30N 51°06' E 003°45'0 0.0
2017-Nov-17 04:00N 51°06' E 003°45'0 0.0
2017-Nov-17 03:30N 51°06' E 003°45'0 0.0
2017-Nov-17 03:00N 51°06' E 003°45'0 0.0
2017-Nov-17 02:30N 51°06' E 003°45'0 0.0
2017-Nov-17 02:00N 51°06' E 003°45'0 0.0
2017-Nov-17 01:30N 51°06' E 003°45'0 0.0
2017-Nov-17 01:00N 51°06' E 003°45'0 0.0
2017-Nov-17 00:30N 51°06' E 003°45'0 0.0
2017-Nov-17 00:00N 51°06' E 003°45'0 0.0
2017-Nov-16 23:30N 51°06' E 003°45'0 0.0
2017-Nov-16 23:00N 51°06' E 003°45'0 0.0
2017-Nov-16 22:30N 51°06' E 003°45'0 0.0
2017-Nov-16 22:00N 51°06' E 003°45'0 0.0
2017-Nov-16 21:30N 51°06' E 003°45'0 0.0
2017-Nov-16 21:00N 51°06' E 003°45'0 0.0
2017-Nov-16 20:30N 51°06' E 003°45'0 0.0
2017-Nov-16 20:00N 51°06' E 003°45'0 0.0
2017-Nov-16 19:30N 51°06' E 003°45'0 0.0
2017-Nov-16 19:00N 51°06' E 003°45'0 0.0
2017-Nov-16 18:30N 51°06' E 003°45'0 0.0
2017-Nov-16 18:00N 51°06' E 003°45'0 0.0
2017-Nov-16 17:30N 51°06' E 003°45'0 0.0
2017-Nov-16 17:00N 51°06' E 003°45'0 0.0
2017-Nov-16 16:30N 51°06' E 003°45'0 0.0
2017-Nov-16 16:00N 51°06' E 003°45'0 0.0
2017-Nov-16 15:30N 51°06' E 003°45'0 0.0
2017-Nov-16 15:00N 51°06' E 003°45'0 0.0
2017-Nov-16 14:30N 51°06' E 003°45'0 0.0
2017-Nov-16 14:00N 51°06' E 003°45'0 0.0
2017-Nov-16 13:30N 51°06' E 003°45'0 0.0
2017-Nov-16 13:00N 51°06' E 003°45'0 0.0
2017-Nov-16 12:30N 51°06' E 003°45'0 0.0
2017-Nov-16 12:00N 51°06' E 003°45'0 0.0
2017-Nov-16 11:30N 51°06' E 003°45'0 0.0
2017-Nov-16 11:00N 51°06' E 003°45'0 0.0
2017-Nov-16 10:30N 51°06' E 003°45'0 0.0
2017-Nov-16 10:00N 51°06' E 003°45'0 0.0
2017-Nov-16 09:30N 51°06' E 003°45'0 0.0
2017-Nov-16 09:00N 51°06' E 003°45'0 0.0
2017-Nov-16 08:30N 51°06' E 003°45'0 0.0
2017-Nov-16 08:00N 51°06' E 003°45'0 0.0
2017-Nov-16 07:27N 51°06' E 003°45'0 0.0
2017-Nov-16 07:00N 51°06' E 003°45'1 2.9
2017-Nov-16 06:30N 51°07' E 003°45'2 4.8
2017-Nov-16 06:00N 51°09' E 003°47'3 5.4
2017-Nov-16 05:30N 51°12' E 003°48'2 4.7
2017-Nov-16 05:00N 51°14' E 003°49'2 4.8
2017-Nov-16 04:30N 51°16' E 003°50'2 4.6
2017-Nov-16 04:00N 51°19' E 003°50'1 2.2
2017-Nov-16 03:30N 51°20' E 003°49'0 0.0
2017-Nov-16 03:00N 51°20' E 003°49'0 0.7
2017-Nov-16 02:30N 51°20' E 003°49'0 0.4
2017-Nov-16 02:00N 51°20' E 003°49'3 5.9
2017-Nov-16 01:30N 51°22' E 003°45'4 8.7
2017-Nov-16 01:00N 51°26' E 003°41'2 4.1
2017-Nov-16 00:30N 51°28' E 003°42'0 0.0
2017-Nov-16 00:00N 51°28' E 003°42'0 0.0
2017-Nov-15 23:30N 51°28' E 003°42'0 0.0
2017-Nov-15 23:00N 51°28' E 003°42'0 0.0
2017-Nov-15 22:30N 51°28' E 003°42'0 0.0
2017-Nov-15 22:00N 51°28' E 003°42'0 0.0
2017-Nov-15 21:30N 51°28' E 003°42'0 0.0
2017-Nov-15 21:00N 51°28' E 003°42'0 0.0
2017-Nov-15 20:30N 51°28' E 003°42'0 0.0
2017-Nov-15 20:00N 51°28' E 003°42'0 0.0
2017-Nov-15 19:30N 51°28' E 003°42'0 0.0
2017-Nov-15 18:57N 51°28' E 003°42'0 0.0
2017-Nov-15 18:30N 51°28' E 003°42'0 0.0
2017-Nov-15 17:48N 51°28' E 003°42'0 0.0
2017-Nov-15 17:30N 51°28' E 003°42'0 0.0
2017-Nov-15 17:00N 51°28' E 003°42'0 0.0
2017-Nov-15 16:30N 51°28' E 003°42'0 0.0
2017-Nov-15 15:57N 51°28' E 003°42'0 0.0
2017-Nov-15 15:30N 51°28' E 003°42'0 0.0
2017-Nov-15 15:00N 51°28' E 003°42'0 0.0
2017-Nov-15 14:30N 51°28' E 003°42'0 0.0
2017-Nov-15 14:00N 51°28' E 003°42'0 0.0
2017-Nov-15 13:30N 51°28' E 003°42'0 0.0
2017-Nov-15 13:00N 51°28' E 003°42'0 0.0
2017-Nov-15 12:30N 51°28' E 003°42'0 0.0
2017-Nov-15 12:00N 51°28' E 003°42'0 0.0
2017-Nov-15 11:30N 51°28' E 003°42'0 0.0
2017-Nov-15 11:00N 51°28' E 003°42'0 0.0
2017-Nov-15 10:30N 51°28' E 003°42'0 0.0
2017-Nov-15 10:00N 51°28' E 003°42'0 0.0
2017-Nov-15 09:30N 51°28' E 003°42'0 0.0
2017-Nov-15 09:00N 51°28' E 003°42'0 0.0
2017-Nov-15 08:30N 51°28' E 003°42'0 0.0
2017-Nov-15 08:00N 51°28' E 003°42'0 0.0
2017-Nov-15 07:30N 51°28' E 003°42'0 0.0
2017-Nov-15 07:00N 51°28' E 003°42'0 0.0
2017-Nov-15 06:30N 51°28' E 003°42'0 0.0
2017-Nov-15 06:00N 51°28' E 003°42'0 0.0
2017-Nov-15 05:24N 51°28' E 003°42'0 0.0
2017-Nov-15 05:00N 51°28' E 003°42'0 0.0
2017-Nov-15 04:30N 51°28' E 003°42'0 0.0
2017-Nov-15 04:00N 51°28' E 003°42'0 0.0
2017-Nov-15 03:30N 51°28' E 003°42'0 0.0
2017-Nov-15 03:00N 51°28' E 003°42'0 0.0
2017-Nov-15 02:30N 51°28' E 003°42'0 0.0
2017-Nov-15 02:00N 51°28' E 003°42'0 0.0
2017-Nov-15 01:30N 51°28' E 003°42'0 0.0
2017-Nov-15 01:00N 51°28' E 003°42'0 0.0
2017-Nov-15 00:30N 51°28' E 003°42'0 0.0
2017-Nov-15 00:00N 51°28' E 003°42'0 0.0
2017-Nov-14 23:30N 51°28' E 003°42'0 0.0
2017-Nov-14 23:00N 51°28' E 003°42'0 0.0
2017-Nov-14 22:30N 51°28' E 003°42'0 0.5
2017-Nov-14 22:01N 51°28' E 003°41'3 5.6
2017-Nov-14 21:31N 51°26' E 003°37'815.4
2017-Nov-14 21:00N 51°25' E 003°25'815.5
2017-Nov-14 20:30N 51°24' E 003°13'714.0
2017-Nov-14 20:00N 51°24' E 003°02'713.2
2017-Nov-14 19:30N 51°22' E 002°52'611.3
2017-Nov-14 19:00N 51°22' E 002°42'4 8.7
2017-Nov-14 18:30N 51°22' E 002°36'611.9
2017-Nov-14 18:00N 51°21' E 002°26'611.3
2017-Nov-14 17:30N 51°19' E 002°18'510.8
2017-Nov-14 17:00N 51°16' E 002°10'510.4
2017-Nov-14 16:30N 51°13' E 002°03'510.4
2017-Nov-14 16:00N 51°11' E 001°56'510.4
2017-Nov-14 15:30N 51°08' E 001°49'510.4
2017-Nov-14 15:00N 51°05' E 001°43'510.5
2017-Nov-14 14:30N 51°01' E 001°36'611.1
2017-Nov-14 14:00N 50°57' E 001°30'611.1
2017-Nov-14 13:30N 50°52' E 001°27'611.3
2017-Nov-14 13:00N 50°47' E 001°23'1011.1
2017-Nov-14 12:09N 50°39' E 001°15'211.6
2017-Nov-14 12:00N 50°38' E 001°13'711.5
2017-Nov-14 11:23N 50°33' E 001°05'711.2
2017-Nov-14 10:47N 50°28' E 000°57'411.4
2017-Nov-14 10:26N 50°27' E 000°51'511.3
2017-Nov-14 10:00N 50°26' E 000°44'1211.4
2017-Nov-14 08:57N 50°23' E 000°26'511.3
2017-Nov-14 08:30N 50°22' E 000°18'611.7
2017-Nov-14 08:00N 50°20' E 000°09'612.1
2017-Nov-14 07:30N 50°18' W 000°00'612.4
2017-Nov-14 07:00N 50°17' W 000°10'612.9
2017-Nov-14 06:30N 50°15' W 000°19'713.3
2017-Nov-14 05:58N 50°13' W 000°30'613.6
2017-Nov-14 05:30N 50°12' W 000°40'713.8
2017-Nov-14 04:59N 50°10' W 000°50'1013.9
2017-Nov-14 04:16N 50°07' W 001°05'413.8
2017-Nov-14 03:58N 50°06' W 001°12'613.7
2017-Nov-14 03:30N 50°04' W 001°21'713.4
2017-Nov-14 03:00N 50°03' W 001°31'612.9
2017-Nov-14 02:30N 50°01' W 001°41'2111.5
2017-Nov-14 00:39N 49°56' W 002°13'210.3
2017-Nov-14 00:29N 49°55' W 002°16'  

Dump ship's entire track history